Ana Sayfa
METAR-TAF:

METAR-TAF

Havaalanları :

Denizli Çardak Havalimanı

Çardak, Türkiye

Enlem: 37-47N, Boylam: 029-42E, yükseklik: 849 m

Güncel hava durumu gözlemi

Rapor saat 14:50 UTC de 52 dakika önce yapıldı.
Rüzgar güney/güneydoğudan 8 kt, güneydoğu ve güney/güneybatı arasında değişken
Sıcaklık 17°C
Nem 77%
Basınç 1013 hPa
Görüş mesafesi 10 km veya daha fazla
2500 ft yükseklikte az bulutlu, Kümülonimbus.
3000 ft yükseklikte parçalı çok bulutlu
9000 ft yükseklikte parçalı çok bulutlu
gök gürültülü fırtına

METAR: LTAY 261450Z 16008KT 130V200 9999 TS FEW025CB BKN030 BKN090 17/13 Q1013

Saat: 18:42 (15:42 UTC)


TAF: eksik

4.000'den fazla havaalanı için hava durumu gözlemleri ve tahminleri (METAR ve TAF raporları).

Kullanılabilir istasyonlar harita üzerinde sarı ve kırmızı noktalarla gösterilir.

İstasyonun adını görmek için fareyi noktanın üzerinde gezdirin.

Sonrasında hava gözlem ve tahminlerini görmek için tıklayın.

Haritayı değiştirmek için: yaklaştırmak için siyah artı işaretli yeşil düğmeye ve uzaklaştırmak için de eksi işaretli düğmeye hızla tıklayın; bitişik haritalar için yeşil okları kullanın.


METAR-TAF: